Time;durP1;ratioP1;P1;durP2;ratioP2;P2;SDS_P1;SDS_P2;PMS_P1;PMS_P2;Temp;Humidity;BMP_temperature;BMP_pressure;BME280_temperature;BME280_humidity;BME280_pressure;Samples;Min_cycle;Max_cycle;Signal;HPM_P1;HPM_P2
2024/04/15 12:10:52;;;;;;;6.28;1.90;;;;;;;18.14;37.62;99545.05;1905528;74;26043;-62
2024/04/15 12:13:19;;;;;;;4.30;1.37;;;;;;;17.86;37.69;99537.33;1859999;76;25441;-60
2024/04/15 12:15:45;;;;;;;3.65;1.40;;;;;;;18.09;38.47;99544.80;1859880;77;27592;-61
2024/04/15 12:18:11;;;;;;;7.72;1.90;;;;;;;18.35;37.67;99533.47;1859891;77;25353;-60
2024/04/15 12:20:37;;;;;;;8.15;2.33;;;;;;;18.23;37.91;99518.72;1859940;77;25642;-59
2024/04/15 12:23:06;;;;;;;4.80;1.40;;;;;;;18.22;37.40;99513.06;1859890;76;25500;-61
2024/04/15 12:25:32;;;;;;;2.67;1.02;;;;;;;18.09;37.23;99508.45;1860232;77;25528;-60
2024/04/15 12:28:00;;;;;;;4.80;1.27;;;;;;;18.01;37.64;99515.80;1859978;76;28110;-60
2024/04/15 12:30:26;;;;;;;6.28;1.62;;;;;;;18.28;38.44;99515.63;1859961;76;25434;-63
2024/04/15 12:32:56;;;;;;;14.63;9.55;;;;;;;18.90;38.33;99512.70;1859991;76;25534;-64
2024/04/15 12:35:23;;;;;;;3.52;1.40;;;;;;;18.89;35.72;99511.92;1859259;76;25723;-65
2024/04/15 12:37:49;;;;;;;7.72;2.25;;;;;;;18.65;36.15;99523.70;1860068;77;25575;-63
2024/04/15 12:40:17;;;;;;;4.85;1.55;;;;;;;18.37;35.35;99496.14;1859875;77;27538;-61
2024/04/15 12:42:43;;;;;;;4.42;2.47;;;;;;;18.11;35.47;99486.38;1859759;76;25744;-60
2024/04/15 12:45:09;;;;;;;4.85;1.60;;;;;;;18.25;36.08;99478.06;1859951;76;25355;-61
2024/04/15 12:47:39;;;;;;;7.25;1.42;;;;;;;18.53;36.72;99478.06;1859923;76;26462;-61
2024/04/15 12:50:09;;;;;;;4.58;1.25;;;;;;;18.97;35.93;99477.91;1859849;77;25339;-60
2024/04/15 12:52:37;;;;;;;6.80;1.50;;;;;;;19.18;36.28;99475.05;1859913;76;28101;-61
2024/04/15 12:55:06;;;;;;;4.28;1.37;;;;;;;19.52;35.34;99465.91;1859889;77;25497;-62
2024/04/15 12:57:32;;;;;;;2.00;1.27;;;;;;;19.56;33.83;99463.98;1860075;76;25457;-65
2024/04/15 12:59:59;;;;;;;5.85;1.85;;;;;;;19.54;33.30;99466.90;1859867;77;25912;-67
2024/04/15 13:02:25;;;;;;;4.20;1.07;;;;;;;19.11;32.72;99462.70;1860007;76;25627;-65
2024/04/15 13:04:51;;;;;;;7.28;1.32;;;;;;;18.77;33.54;99462.92;1860058;77;27463;-67
2024/04/15 13:07:17;;;;;;;5.08;1.40;;;;;;;18.65;33.67;99464.05;1859925;77;25461;-66
2024/04/15 13:09:44;;;;;;;4.97;1.15;;;;;;;18.63;34.50;99458.95;1859665;76;25481;-66
2024/04/15 13:12:12;;;;;;;5.72;1.30;;;;;;;18.66;34.24;99443.69;1859879;76;25450;-66
2024/04/15 13:14:40;;;;;;;7.90;1.30;;;;;;;18.47;33.86;99439.29;1860138;76;25511;-65
2024/04/15 13:17:07;;;;;;;2.83;1.00;;;;;;;18.48;34.29;99440.88;1860045;77;27450;-65
2024/04/15 13:19:34;;;;;;;4.17;1.27;;;;;;;18.69;34.46;99441.55;1860045;76;25356;-65
2024/04/15 13:22:01;;;;;;;6.20;1.40;;;;;;;18.59;33.97;99434.08;1859533;77;25544;-66
2024/04/15 13:24:27;;;;;;;6.10;1.60;;;;;;;18.27;34.25;99431.38;1859390;76;25543;-66
2024/04/15 13:26:53;;;;;;;4.05;1.50;;;;;;;18.11;34.52;99428.13;1859437;76;25372;-65
2024/04/15 13:29:21;;;;;;;9.48;2.83;;;;;;;17.94;34.25;99420.59;1859348;77;27640;-66
2024/04/15 13:31:48;;;;;;;2.60;1.40;;;;;;;17.77;34.76;99421.41;1859206;77;25759;-66
2024/04/15 13:34:14;;;;;;;2.37;1.27;;;;;;;17.85;35.41;99406.63;1859294;76;25764;-67
2024/04/15 13:36:40;;;;;;;6.42;1.37;;;;;;;17.95;35.31;99405.76;1859236;76;25364;-67
2024/04/15 13:39:06;;;;;;;4.20;1.30;;;;;;;17.92;35.27;99416.27;1859244;77;25555;-65
2024/04/15 13:41:36;;;;;;;4.35;1.25;;;;;;;17.80;35.18;99416.55;1859310;77;27567;-67
2024/04/15 13:44:03;;;;;;;3.10;1.05;;;;;;;17.68;34.97;99413.52;1858288;77;25765;-67
2024/04/15 13:46:31;;;;;;;4.97;1.40;;;;;;;17.65;35.27;99412.13;1858146;77;25984;-66
2024/04/15 13:48:57;;;;;;;6.90;1.50;;;;;;;17.47;34.74;99410.03;1858881;76;25883;-65
2024/04/15 13:51:23;;;;;;;3.47;1.30;;;;;;;17.18;35.12;99420.69;1837879;77;25595;-65
2024/04/15 13:53:49;;;;;;;4.60;1.10;;;;;;;16.96;35.56;99418.30;1859004;76;27500;-66
2024/04/15 13:56:19;;;;;;;4.28;1.20;;;;;;;16.89;35.56;99411.96;1858985;77;25348;-65
2024/04/15 13:58:47;;;;;;;11.40;1.50;;;;;;;16.75;35.32;99396.98;1859294;76;25505;-65
2024/04/15 14:01:13;;;;;;;13.43;2.15;;;;;;;16.49;35.21;99393.72;1859416;77;25464;-65
2024/04/15 14:03:41;;;;;;;2.75;1.22;;;;;;;16.32;35.81;99395.64;1859331;77;25575;-66
2024/04/15 14:06:10;;;;;;;4.00;1.00;;;;;;;16.25;36.26;99394.38;1859294;77;27389;-66
2024/04/15 14:08:39;;;;;;;5.00;1.40;;;;;;;16.03;36.75;99389.78;1859313;77;29602;-66
2024/04/15 14:11:05;;;;;;;4.90;1.22;;;;;;;15.82;36.69;99392.98;1864514;76;25475;-66
2024/04/15 14:13:31;;;;;;;13.38;1.75;;;;;;;15.57;38.12;99388.47;1865600;76;25185;-66
2024/04/15 14:15:58;;;;;;;3.83;1.72;;;;;;;15.53;38.81;99406.68;1865540;76;25435;-66
2024/04/15 14:18:26;;;;;;;4.05;1.67;;;;;;;15.43;40.02;99393.11;1865504;76;27503;-66
2024/04/15 14:20:52;;;;;;;8.95;1.45;;;;;;;15.20;40.28;99380.82;1865580;76;25556;-66
2024/04/15 14:23:18;;;;;;;9.90;1.35;;;;;;;15.08;40.93;99382.55;1848892;76;25640;-66
2024/04/15 14:25:46;;;;;;;4.97;1.02;;;;;;;14.86;41.79;99385.45;1865594;76;25565;-66
2024/04/15 14:28:12;;;;;;;4.58;2.17;;;;;;;14.68;41.65;99379.67;1865560;76;25603;-66
2024/04/15 14:30:39;;;;;;;3.75;1.25;;;;;;;14.58;42.07;99377.50;1865493;76;27447;-66
2024/04/15 14:33:07;;;;;;;3.10;1.35;;;;;;;14.48;42.30;99376.70;1865452;76;25436;-66
2024/04/15 14:35:33;;;;;;;11.38;2.37;;;;;;;14.30;42.52;99389.92;1865483;76;25339;-66
2024/04/15 14:37:59;;;;;;;4.45;1.32;;;;;;;14.10;43.02;99383.68;1865469;76;25615;-66
2024/04/15 14:40:26;;;;;;;7.67;3.83;;;;;;;13.95;43.55;99392.86;1865547;76;25421;-66
2024/04/15 14:42:53;;;;;;;5.30;1.98;;;;;;;13.77;43.60;99401.16;1865555;76;27398;-66
2024/04/15 14:45:20;;;;;;;7.92;6.85;;;;;;;13.63;43.87;99385.30;1865442;76;25714;-64
2024/04/15 14:47:46;;;;;;;46.42;43.42;;;;;;;13.54;44.35;99384.70;1865467;76;25485;-64
2024/04/15 14:50:14;;;;;;;42.30;39.78;;;;;;;13.49;44.74;99384.97;1865511;76;25823;-65
2024/04/15 14:52:40;;;;;;;42.55;39.85;;;;;;;13.41;44.97;99373.91;1865603;76;25513;-63
2024/04/15 14:55:09;;;;;;;52.80;49.40;;;;;;;13.40;45.20;99373.70;1865520;76;27561;-63
2024/04/15 14:57:37;;;;;;;57.60;53.95;;;;;;;13.38;45.64;99364.31;1865570;76;25411;-63
2024/04/15 15:00:11;;;;;;;70.72;66.02;;;;;;;13.35;45.67;99362.29;1865628;76;25430;-63
2024/04/15 15:02:39;;;;;;;75.85;71.07;;;;;;;13.26;45.66;99367.31;1865541;76;25608;-61
2024/04/15 15:05:07;;;;;;;77.53;72.27;;;;;;;13.21;45.66;99368.93;1865551;76;25561;-62
2024/04/15 15:07:36;;;;;;;33.18;31.17;;;;;;;13.16;45.79;99371.09;1865638;76;28255;-63
2024/04/15 15:10:09;;;;;;;64.85;60.88;;;;;;;13.07;45.74;99366.61;1863816;75;25372;-64
2024/04/15 15:12:35;;;;;;;68.95;64.45;;;;;;;13.02;45.65;99358.72;1859237;77;25535;-64
2024/04/15 15:15:05;;;;;;;28.17;26.12;;;;;;;13.00;45.98;99353.44;1859074;76;25544;-64
2024/04/15 15:17:34;;;;;;;6.37;1.30;;;;;;;12.95;46.18;99355.05;1859237;76;25564;-64
2024/04/15 15:20:00;;;;;;;5.65;1.98;;;;;;;12.92;46.31;99353.02;1859234;77;28098;-66
2024/04/15 15:22:26;;;;;;;3.50;2.75;;;;;;;12.86;46.70;99359.28;1858942;77;25504;-66
2024/04/15 15:24:53;;;;;;;5.67;3.92;;;;;;;12.82;46.63;99361.90;1859146;77;25614;-63
2024/04/15 15:27:24;;;;;;;75.00;50.65;;;;;;;12.75;46.61;99344.05;1859199;77;25557;-63
2024/04/15 15:29:55;;;;;;;15.83;14.73;;;;;;;12.73;47.23;99340.12;1859409;77;25443;-63
2024/04/15 15:32:25;;;;;;;8.88;5.03;;;;;;;12.67;47.07;99344.44;1859515;77;27463;-63
2024/04/15 15:34:51;;;;;;;6.58;1.55;;;;;;;12.66;47.43;99349.62;1859391;77;25503;-63
2024/04/15 15:37:21;;;;;;;5.33;3.12;;;;;;;12.63;47.44;99344.92;1859366;77;25541;-64
2024/04/15 15:42:20;;;;;;;13.70;8.40;;;;;;;12.64;47.85;99340.27;1830417;78;25610;-60
2024/04/15 15:44:46;;;;;;;4.28;3.15;;;;;;;12.61;48.00;99331.46;1830157;78;27464;-60
2024/04/15 15:47:12;;;;;;;4.47;2.02;;;;;;;12.64;48.34;99343.77;1829949;78;25514;-59
2024/04/15 15:49:38;;;;;;;66.50;61.98;;;;;;;12.65;48.32;99335.86;1830159;77;25576;-60
2024/04/15 15:52:11;;;;;;;73.12;68.22;;;;;;;12.67;48.45;99329.52;1830009;78;25502;-60
2024/04/15 15:54:36;;;;;;;77.67;72.85;;;;;;;12.68;48.61;99339.24;1830066;78;25696;-63
2024/04/15 15:57:02;;;;;;;77.95;72.85;;;;;;;12.65;48.67;99335.86;1830194;78;28119;-60
2024/04/15 15:59:29;;;;;;;62.40;58.25;;;;;;;12.55;49.26;99328.22;1830016;78;25876;-60
2024/04/15 16:01:55;;;;;;;64.92;60.78;;;;;;;12.51;49.58;99321.89;1830034;78;25527;-57
2024/04/15 16:04:26;;;;;;;61.20;57.38;;;;;;;12.47;49.91;99308.23;1830160;78;25576;-62
2024/04/15 16:06:53;;;;;;;;;;;;;;;12.42;50.20;99306.34;1832869;78;25532;-62
2024/04/15 16:09:23;;;;;;;66.37;62.17;;;;;;;12.38;50.51;99307.60;1830122;77;27345;-63
2024/04/15 16:11:49;;;;;;;54.70;51.45;;;;;;;12.30;50.94;99288.97;1830029;78;25429;-62
2024/04/15 16:14:15;;;;;;;70.55;65.95;;;;;;;12.26;50.94;99279.16;1830210;77;25432;-61
2024/04/15 16:16:42;;;;;;;47.40;44.48;;;;;;;12.21;51.45;99264.48;1830041;78;25595;-61
2024/04/15 16:19:10;;;;;;;77.80;72.65;;;;;;;12.14;51.78;99259.69;1800125;78;25443;-61
2024/04/15 16:21:39;;;;;;;77.53;72.70;;;;;;;12.05;51.67;99254.37;1830252;78;28774;-60
2024/04/15 16:24:07;;;;;;;78.07;73.00;;;;;;;12.03;52.50;99251.80;1830045;78;26062;-60
2024/04/15 16:26:36;;;;;;;78.42;73.10;;;;;;;11.99;52.23;99237.38;1830243;78;25556;-62
2024/04/15 16:29:06;;;;;;;77.95;73.07;;;;;;;11.94;52.39;99238.39;1830061;77;26047;-62
2024/04/15 16:31:34;;;;;;;77.55;72.55;;;;;;;11.94;52.53;99241.89;1830071;78;25494;-61
2024/04/15 16:34:04;;;;;;;77.40;72.58;;;;;;;11.95;52.71;99225.86;1830108;78;27465;-62
2024/04/15 16:36:30;;;;;;;78.50;73.65;;;;;;;11.95;52.72;99221.80;1830083;78;32793;-62
2024/04/15 16:38:58;;;;;;;77.03;72.12;;;;;;;11.96;52.94;99229.35;1826568;77;25555;-62
2024/04/15 16:41:27;;;;;;;80.07;74.97;;;;;;;11.94;53.14;99224.27;1818167;78;25532;-62
2024/04/15 16:43:54;;;;;;;77.78;72.37;;;;;;;11.90;53.39;99219.84;1818384;78;25367;-62
2024/04/15 16:46:22;;;;;;;78.67;73.57;;;;;;;11.90;53.96;99225.27;1818199;78;28071;-62
2024/04/15 16:48:50;;;;;;;77.95;72.95;;;;;;;11.87;53.62;99224.05;1817761;78;25582;-63
2024/04/15 16:51:16;;;;;;;80.20;74.70;;;;;;;11.89;53.87;99212.87;1816761;78;25942;-62
2024/04/15 16:53:42;;;;;;;78.10;72.72;;;;;;;11.86;54.01;99212.20;1817298;78;27774;-62
2024/04/15 16:56:10;;;;;;;77.78;72.60;;;;;;;11.85;54.50;99210.61;1818226;78;25595;-63
2024/04/15 16:58:39;;;;;;;76.57;71.62;;;;;;;11.78;54.50;99206.58;1818326;78;26599;-63
2024/04/15 17:01:06;;;;;;;78.80;73.28;;;;;;;11.73;54.45;99207.36;1818382;78;25545;-62
2024/04/15 17:03:34;;;;;;;76.40;71.30;;;;;;;11.69;54.69;99201.84;1818328;78;25337;-61
2024/04/15 17:06:04;;;;;;;7.25;2.72;;;;;;;11.63;54.97;99195.11;1818329;78;26481;-63
2024/04/15 17:08:30;;;;;;;6.62;3.47;;;;;;;11.55;56.02;99208.98;1818507;78;25380;-63
2024/04/15 17:10:56;;;;;;;8.10;3.37;;;;;;;11.48;56.05;99206.66;1818256;78;27456;-63
2024/04/15 17:13:23;;;;;;;10.63;3.27;;;;;;;11.39;55.43;99200.79;1818199;78;25540;-61
2024/04/15 17:15:49;;;;;;;7.70;3.42;;;;;;;11.32;55.65;99201.13;1818320;78;25523;-62
2024/04/15 17:18:17;;;;;;;9.65;3.35;;;;;;;11.24;55.64;99197.42;1818072;78;25463;-62
2024/04/15 17:20:44;;;;;;;7.13;3.10;;;;;;;11.18;55.87;99200.13;1818598;78;25421;-62
2024/04/15 17:23:10;;;;;;;6.80;3.40;;;;;;;11.15;55.88;99205.67;1818308;78;27448;-63
2024/04/15 17:25:38;;;;;;;10.72;3.05;;;;;;;11.02;56.49;99193.27;1818315;78;25901;-61
2024/04/15 17:28:10;;;;;;;8.05;2.72;;;;;;;10.92;56.81;99189.66;1818376;78;25565;-61
2024/04/15 17:30:39;;;;;;;8.60;4.20;;;;;;;10.83;56.85;99181.08;1818187;78;25609;-61
2024/04/15 17:33:07;;;;;;;7.12;2.90;;;;;;;10.74;56.82;99172.27;1818359;78;25535;-60
2024/04/15 17:35:35;;;;;;;15.93;14.35;;;;;;;10.73;57.21;99175.34;1818335;78;27451;-61
2024/04/15 17:38:05;;;;;;;33.30;30.57;;;;;;;10.68;57.81;99178.27;1818283;78;25454;-61
2024/04/15 17:40:31;;;;;;;81.75;76.33;;;;;;;10.60;57.51;99174.52;1818286;77;25556;-61
2024/04/15 17:43:01;;;;;;;13.05;11.83;;;;;;;10.56;57.69;99170.34;1818206;78;25596;-61
2024/04/15 17:45:29;;;;;;;8.78;4.83;;;;;;;10.53;57.82;99175.06;1818367;78;25625;-62
2024/04/15 17:47:58;;;;;;;18.90;17.37;;;;;;;10.49;58.57;99180.13;1818328;78;28050;-61
2024/04/15 17:50:26;;;;;;;76.62;71.62;;;;;;;10.44;59.01;99170.34;1818166;78;25606;-61
2024/04/15 17:52:52;;;;;;;10.35;7.25;;;;;;;10.37;59.02;99165.48;1818330;78;25605;-61
2024/04/15 17:55:18;;;;;;;7.47;3.45;;;;;;;10.35;59.00;99164.22;1818250;78;26052;-61
2024/04/15 17:57:48;;;;;;;78.42;73.00;;;;;;;10.31;59.27;99158.66;1818343;78;25397;-60
2024/04/15 18:00:19;;;;;;;14.47;10.25;;;;;;;10.28;59.85;99152.56;1818292;78;28145;-61
2024/04/15 18:02:47;;;;;;;80.57;75.10;;;;;;;10.26;59.62;99157.53;1793391;78;25789;-60
2024/04/15 18:05:18;;;;;;;82.05;76.60;;;;;;;10.25;59.93;99163.50;1818211;78;25433;-59
2024/04/15 18:07:48;;;;;;;94.90;86.78;;;;;;;10.24;60.12;99156.51;1818289;78;25584;-58
2024/04/15 18:10:19;;;;;;;14.05;9.03;;;;;;;10.23;60.72;99158.19;1818243;78;25511;-58
2024/04/15 18:12:48;;;;;;;70.60;65.47;;;;;;;10.22;60.76;99149.30;1818291;78;27464;-63
2024/04/15 18:15:15;;;;;;;77.42;72.12;;;;;;;10.19;60.84;99145.13;1818212;78;25414;-63
2024/04/15 18:17:46;;;;;;;78.50;73.05;;;;;;;10.16;60.85;99156.59;1818313;78;25425;-64
2024/04/15 18:20:13;;;;;;;79.60;74.00;;;;;;;10.14;61.32;99162.33;1818235;78;25554;-63
2024/04/15 18:22:43;;;;;;;79.55;73.92;;;;;;;10.10;61.48;99160.08;1818278;78;25463;-63
2024/04/15 18:25:11;;;;;;;77.37;71.82;;;;;;;10.05;61.58;99160.30;1818278;78;27658;-65
2024/04/15 18:27:42;;;;;;;81.50;76.05;;;;;;;10.04;61.95;99166.23;1818215;78;25618;-65
2024/04/15 18:30:12;;;;;;;80.42;74.90;;;;;;;10.07;62.24;99172.33;1818261;78;25504;-65
2024/04/15 18:32:38;;;;;;;82.67;76.82;;;;;;;10.06;61.90;99170.77;1818405;78;25584;-65
2024/04/15 18:35:07;;;;;;;78.40;73.02;;;;;;;10.05;61.99;99180.55;1818188;78;25364;-65
2024/04/15 18:37:33;;;;;;;80.32;74.53;;;;;;;10.04;62.08;99173.56;1818429;78;27782;-65
2024/04/15 18:40:00;;;;;;;80.42;74.82;;;;;;;10.01;62.43;99163.41;1823268;78;25536;-65
2024/04/15 18:42:26;;;;;;;79.70;74.32;;;;;;;9.98;62.33;99151.94;1830058;78;25553;-65
2024/04/15 18:44:54;;;;;;;77.60;72.35;;;;;;;9.95;62.45;99145.84;1830074;77;25553;-65
2024/04/15 18:47:20;;;;;;;80.22;74.92;;;;;;;9.94;62.48;99138.86;1829082;78;25538;-65
2024/04/15 18:49:46;;;;;;;81.40;75.43;;;;;;;9.94;62.78;99132.88;1830077;78;27520;-65
2024/04/15 18:52:12;;;;;;;79.10;72.85;;;;;;;9.93;62.63;99117.81;1829911;78;25415;-65
2024/04/15 18:54:39;;;;;;;75.00;70.05;;;;;;;9.91;63.06;99107.91;1830111;77;25547;-66
2024/04/15 18:57:05;;;;;;;78.80;73.17;;;;;;;9.91;63.15;99098.46;1830047;77;25522;-64
2024/04/15 18:59:31;;;;;;;63.02;58.63;;;;;;;9.88;63.33;99089.09;1830161;78;25593;-64
2024/04/15 19:01:57;;;;;;;13.38;5.80;;;;;;;9.93;63.00;99088.64;1830033;78;27461;-64
2024/04/15 19:04:23;;;;;;;10.08;6.10;;;;;;;9.93;63.54;99086.75;1829927;78;25536;-65
2024/04/15 19:06:50;;;;;;;14.00;5.92;;;;;;;9.91;63.17;99075.50;1830067;78;25354;-64
2024/04/15 19:09:16;;;;;;;12.03;5.92;;;;;;;9.91;63.62;99076.85;1829977;78;25475;-64
2024/04/15 19:11:44;;;;;;;13.65;6.83;;;;;;;9.90;63.48;99075.27;1830056;78;25605;-65
2024/04/15 19:14:10;;;;;;;13.15;5.92;;;;;;;9.85;63.95;99081.66;1830086;78;27451;-65
2024/04/15 19:16:37;;;;;;;13.78;6.75;;;;;;;9.83;63.86;99077.16;1829945;78;25524;-65
2024/04/15 19:19:04;;;;;;;12.58;6.72;;;;;;;9.81;63.66;99081.33;1830067;78;25554;-56
2024/04/15 19:21:31;;;;;;;64.53;37.93;;;;;;;9.80;64.29;99072.41;1830042;78;25528;-58
2024/04/15 19:23:57;;;;;;;17.02;8.80;;;;;;;9.80;64.44;99067.58;1830123;78;25594;-59
2024/04/15 19:26:24;;;;;;;17.82;8.25;;;;;;;9.77;64.45;99061.49;1830047;78;28022;-59
2024/04/15 19:28:50;;;;;;;13.60;7.53;;;;;;;9.71;64.35;99053.60;1829905;77;27393;-56
2024/04/15 19:31:16;;;;;;;12.75;7.33;;;;;;;9.70;64.26;99054.74;1829923;78;25773;-55
2024/04/15 19:33:42;;;;;;;13.55;7.22;;;;;;;9.70;64.74;99058.79;1830025;78;25564;-53
2024/04/15 19:36:08;;;;;;;11.48;6.80;;;;;;;9.70;64.85;99053.93;1830074;77;25387;-56
2024/04/15 19:38:36;;;;;;;13.40;7.37;;;;;;;9.68;64.75;99054.83;1830003;78;27530;-55
2024/04/15 19:41:06;;;;;;;11.68;7.47;;;;;;;9.65;65.34;99050.09;1820975;77;25574;-53
2024/04/15 19:43:33;;;;;;;14.30;7.95;;;;;;;9.64;65.02;99049.31;1818239;78;25587;-60
2024/04/15 19:46:01;;;;;;;13.48;7.90;;;;;;;9.62;65.32;99039.41;1818117;78;25469;-56
2024/04/15 19:48:27;;;;;;;19.98;9.10;;;;;;;9.63;65.38;99044.23;1818258;78;25599;-55
2024/04/15 19:50:54;;;;;;;16.75;9.23;;;;;;;9.59;65.20;99036.59;1818099;78;27523;-52
2024/04/15 19:53:20;;;;;;;17.75;9.78;;;;;;;9.59;65.73;99036.59;1818112;78;25504;-55
2024/04/15 19:55:50;;;;;;;23.12;9.85;;;;;;;9.56;65.85;99039.95;1792838;78;25622;-52
2024/04/15 19:58:20;;;;;;;;;;;;;;;9.52;66.17;99039.26;1820833;78;25534;-55
2024/04/15 20:00:48;;;;;;;28.70;10.53;;;;;;;9.45;66.66;99024.70;1818201;78;25601;-56
2024/04/15 20:03:16;;;;;;;17.37;10.43;;;;;;;9.41;66.50;99025.94;1818291;78;28078;-55
2024/04/15 20:05:43;;;;;;;17.67;9.68;;;;;;;9.38;67.06;99019.06;1818101;78;25528;-54
2024/04/15 20:08:09;;;;;;;18.60;10.10;;;;;;;9.35;66.96;99009.73;1818138;78;25640;-56
2024/04/15 20:10:36;;;;;;;21.62;9.98;;;;;;;9.31;67.15;99004.22;1818115;78;25552;-53
2024/04/15 20:13:05;;;;;;;18.40;9.60;;;;;;;9.29;67.02;99005.09;1818173;78;25418;-55
2024/04/15 20:15:31;;;;;;;18.32;10.00;;;;;;;9.27;67.32;98999.23;1818360;78;28118;-53
2024/04/15 20:18:21;;;;;;;19.12;9.70;;;;;;;9.22;67.35;98990.57;1818218;78;35094;-56
2024/04/15 20:20:43;;;;;;;18.77;10.20;;;;;;;9.18;67.76;98989.64;1815965;78;25588;-61
2024/04/15 20:23:15;;;;;;;20.32;11.30;;;;;;;9.12;68.06;98991.19;1818134;78;26204;-52
2024/04/15 20:25:45;;;;;;;47.17;30.02;;;;;;;9.09;67.89;98985.67;1818237;78;25533;-52
2024/04/15 20:28:13;;;;;;;138.12;95.57;;;;;;;9.07;68.69;98986.00;1818171;78;27537;-53
2024/04/15 20:30:40;;;;;;;24.50;14.78;;;;;;;9.05;68.07;98986.89;1818005;78;25840;-53
2024/04/15 20:33:09;;;;;;;14.05;8.80;;;;;;;9.04;68.14;98977.24;1818269;78;25354;-59
2024/04/15 20:35:36;;;;;;;25.85;13.50;;;;;;;8.97;68.13;98971.56;1818277;78;25585;-58
2024/04/15 20:38:04;;;;;;;16.48;9.28;;;;;;;8.93;68.07;98965.27;1818382;78;25551;-57
2024/04/15 20:40:33;;;;;;;26.07;23.20;;;;;;;8.89;68.46;98966.48;1823347;77;27400;-58
2024/04/15 20:43:00;;;;;;;20.30;8.23;;;;;;;8.85;68.25;98959.38;1830137;78;25359;-59
2024/04/15 20:45:29;;;;;;;13.28;8.05;;;;;;;8.82;68.71;98962.73;1830322;78;25449;-59
2024/04/15 20:47:56;;;;;;;17.70;8.40;;;;;;;8.75;68.43;98960.02;1830175;77;25473;-59
2024/04/15 20:50:24;;;;;;;20.43;8.13;;;;;;;8.71;68.65;98960.43;1830207;77;25447;-60
2024/04/15 20:52:50;;;;;;;18.42;8.60;;;;;;;8.66;68.80;98948.50;1830187;78;27458;-60
2024/04/15 20:55:20;;;;;;;18.25;8.60;;;;;;;8.62;69.12;98938.72;1830112;78;25425;-57
2024/04/15 20:57:46;;;;;;;19.40;9.93;;;;;;;8.55;69.15;98921.72;1830287;78;25358;-57
2024/04/15 21:00:15;;;;;;;20.65;10.32;;;;;;;8.48;69.00;98915.51;1830162;78;25616;-56
2024/04/15 21:02:41;;;;;;;13.78;7.50;;;;;;;8.46;69.32;98916.94;1830274;77;25513;-59
2024/04/15 21:05:07;;;;;;;20.27;10.68;;;;;;;8.42;69.06;98908.69;1830091;78;27456;-54
2024/04/15 21:07:35;;;;;;;17.50;7.80;;;;;;;8.38;69.29;98901.83;1830104;78;25375;-57
2024/04/15 21:10:01;;;;;;;16.90;8.68;;;;;;;8.34;69.94;98890.14;1830184;78;25512;-56
2024/04/15 21:12:29;;;;;;;16.48;7.12;;;;;;;8.29;69.63;98888.98;1830146;78;26406;-62
2024/04/15 21:14:55;;;;;;;16.52;6.85;;;;;;;8.25;70.13;98884.01;1830152;78;25528;-61
2024/04/15 21:17:25;;;;;;;16.32;7.47;;;;;;;8.22;70.49;98882.77;1830121;78;27450;-61
2024/04/15 21:19:51;;;;;;;13.83;7.03;;;;;;;8.20;70.22;98880.16;1830267;78;29074;-61
2024/04/15 21:22:17;;;;;;;15.68;7.28;;;;;;;8.19;70.11;98876.69;1830121;77;25607;-61
2024/04/15 21:24:43;;;;;;;17.57;7.35;;;;;;;8.16;70.63;98879.25;1830145;78;25600;-60
2024/04/15 21:27:12;;;;;;;13.43;7.40;;;;;;;8.13;70.46;98880.68;1830199;78;25386;-60
2024/04/15 21:29:39;;;;;;;13.32;7.83;;;;;;;8.09;70.67;98883.80;1830117;78;27539;-60
2024/04/15 21:32:06;;;;;;;14.75;7.20;;;;;;;8.04;70.73;98883.42;1830147;78;25429;-60
2024/04/15 21:34:32;;;;;;;11.90;6.97;;;;;;;7.98;71.09;98871.82;1830141;78;25538;-60
2024/04/15 21:37:00;;;;;;;18.23;7.03;;;;;;;7.93;70.96;98861.24;1830054;77;25536;-60
2024/04/15 21:39:26;;;;;;;14.80;6.65;;;;;;;7.86;71.37;98855.02;1830093;78;25528;-62
2024/04/15 21:41:55;;;;;;;18.12;7.95;;;;;;;7.80;71.06;98853.65;1830099;77;27752;-60
2024/04/15 21:44:21;;;;;;;15.00;6.72;;;;;;;7.74;71.93;98863.80;1830206;77;25716;-60
2024/04/15 21:46:47;;;;;;;23.35;7.90;;;;;;;7.69;72.78;98856.47;1830165;78;25374;-60
2024/04/15 21:49:13;;;;;;;15.63;7.40;;;;;;;7.63;72.65;98853.18;1830116;78;25491;-61
2024/04/15 21:51:39;;;;;;;12.47;7.62;;;;;;;7.59;72.47;98858.96;1829998;78;25617;-60
2024/04/15 21:54:06;;;;;;;20.15;8.68;;;;;;;7.56;72.54;98844.80;1828379;78;27455;-60
2024/04/15 21:56:32;;;;;;;17.50;7.55;;;;;;;7.50;72.91;98840.73;1828335;78;25691;-60
2024/04/15 21:58:58;;;;;;;15.58;7.55;;;;;;;7.43;73.11;98840.67;1828754;78;25885;-60
2024/04/15 22:01:24;;;;;;;15.32;7.15;;;;;;;7.38;73.66;98833.34;1828644;78;25995;-60
2024/04/15 22:03:50;;;;;;;16.15;8.38;;;;;;;7.32;73.31;98821.17;1829024;78;25989;-60
2024/04/15 22:06:16;;;;;;;13.10;7.62;;;;;;;7.27;73.78;98814.06;1829088;77;27550;-60
2024/04/15 22:08:42;;;;;;;17.32;7.75;;;;;;;7.23;73.68;98809.11;1829040;78;25641;-60
2024/04/15 22:11:08;;;;;;;13.85;7.42;;;;;;;7.18;73.82;98803.91;1829219;78;25963;-60
2024/04/15 22:13:35;;;;;;;13.10;7.47;;;;;;;7.14;73.34;98798.95;1830090;78;25537;-59
2024/04/15 22:16:01;;;;;;;16.73;8.05;;;;;;;7.08;73.66;98799.66;1830134;78;25372;-61
2024/04/15 22:18:29;;;;;;;14.30;7.20;;;;;;;7.05;74.21;98806.48;1830121;78;29648;-60
2024/04/15 22:20:55;;;;;;;17.75;8.75;;;;;;;7.00;74.12;98792.41;1829754;77;26222;-59
2024/04/15 22:23:21;;;;;;;15.98;8.28;;;;;;;6.95;74.45;98788.02;1829950;78;25656;-59
2024/04/15 22:25:57;;;;;;;13.43;7.65;;;;;;;6.91;74.74;98788.41;1830105;78;25606;-60
2024/04/15 22:28:25;;;;;;;17.65;8.23;;;;;;;6.86;74.86;98790.73;1830216;78;25568;-59
2024/04/15 22:30:51;;;;;;;13.00;7.17;;;;;;;6.80;75.31;98793.91;1830132;78;27770;-59
2024/04/15 22:33:18;;;;;;;19.65;7.92;;;;;;;6.72;74.88;98796.31;1830014;78;25587;-59
2024/04/15 22:35:44;;;;;;;19.90;8.20;;;;;;;6.68;75.04;98796.70;1830068;78;25489;-60
2024/04/15 22:38:12;;;;;;;16.93;9.38;;;;;;;6.64;75.47;98794.42;1830107;78;25936;-60
2024/04/15 22:40:42;;;;;;;19.20;9.18;;;;;;;6.58;75.81;98786.84;1827231;77;25450;-60
2024/04/15 22:43:10;;;;;;;18.45;10.03;;;;;;;6.54;76.03;98786.13;1818320;78;27498;-60
2024/04/15 22:45:39;;;;;;;16.48;8.38;;;;;;;6.50;76.31;98799.98;1818146;78;25373;-60
2024/04/15 22:48:11;;;;;;;16.23;9.70;;;;;;;6.48;76.48;98804.08;1818009;78;25664;-60
2024/04/15 22:50:37;;;;;;;19.42;8.88;;;;;;;6.44;76.84;98795.87;1818271;78;25377;-59
2024/04/15 22:53:06;;;;;;;17.07;9.48;;;;;;;6.41;76.48;98779.04;1818149;78;25522;-59
2024/04/15 22:55:32;;;;;;;19.92;9.03;;;;;;;6.38;76.70;98771.61;1818344;78;27489;-58
2024/04/15 22:57:58;;;;;;;23.60;10.25;;;;;;;6.36;76.85;98761.74;1818162;78;25770;-58
2024/04/15 23:00:25;;;;;;;16.05;9.18;;;;;;;6.33;77.27;98752.97;1818226;78;25398;-58
2024/04/15 23:02:51;;;;;;;18.90;10.20;;;;;;;6.31;77.18;98747.92;1818159;78;27786;-58
2024/04/15 23:05:17;;;;;;;17.45;8.95;;;;;;;6.27;77.44;98739.50;1818268;78;25385;-59
2024/04/15 23:07:43;;;;;;;16.30;9.03;;;;;;;6.24;77.40;98739.56;1818164;78;27493;-58
2024/04/15 23:10:10;;;;;;;18.35;10.10;;;;;;;6.20;77.18;98736.48;1818108;78;27340;-60
2024/04/15 23:12:36;;;;;;;17.37;8.75;;;;;;;6.19;77.77;98737.04;1818138;78;25432;-59
2024/04/15 23:15:07;;;;;;;14.98;8.18;;;;;;;6.16;77.55;98712.16;1818231;78;26020;-60
2024/04/15 23:17:36;;;;;;;19.17;9.35;;;;;;;6.12;77.02;98699.16;1818325;78;25381;-60
2024/04/15 23:20:07;;;;;;;21.87;10.10;;;;;;;6.08;77.48;98694.98;1818513;78;27399;-60
2024/04/15 23:22:38;;;;;;;17.67;10.23;;;;;;;6.03;77.70;98685.75;1818216;78;25437;-60
2024/04/15 23:25:08;;;;;;;15.80;8.85;;;;;;;6.00;77.91;98697.11;1818301;78;25552;-60
2024/04/15 23:27:40;;;;;;;20.30;9.53;;;;;;;5.97;77.62;98693.71;1818157;78;27530;-59
2024/04/15 23:30:10;;;;;;;14.03;8.98;;;;;;;5.94;77.92;98686.26;1818269;78;25571;-58
2024/04/15 23:32:39;;;;;;;12.35;8.55;;;;;;;5.89;77.74;98679.18;1818214;78;27038;-59
2024/04/15 23:35:08;;;;;;;;;;;;;;;5.83;77.29;98685.80;1795401;78;25888;-59
2024/04/15 23:37:34;;;;;;;19.12;9.15;;;;;;;5.79;77.98;98684.31;1818192;78;25604;-59
2024/04/15 23:40:00;;;;;;;17.57;9.25;;;;;;;5.73;78.06;98670.02;1818164;78;25585;-60
2024/04/15 23:42:26;;;;;;;81.25;75.22;;;;;;;5.71;78.08;98666.31;1828032;77;25663;-60